sensor_id;sensor_type;location;lat;lon;timestamp;pressure;altitude;pressure_sealevel;temperature;humidity
19890;BME280;10107;51.198;6.824;2023-03-08T00:00:43;-21331.34;;;0.38;100.00
19890;BME280;10107;51.198;6.824;2023-03-08T00:04:44;-21330.94;;;0.37;100.00
19890;BME280;10107;51.198;6.824;2023-03-08T00:08:47;-21331.06;;;0.37;100.00
19890;BME280;10107;51.198;6.824;2023-03-08T00:12:49;-21330.94;;;0.37;100.00
19890;BME280;10107;51.198;6.824;2023-03-08T00:16:50;-21331.22;;;0.38;100.00
19890;BME280;10107;51.198;6.824;2023-03-08T00:20:57;-21331.06;;;0.37;100.00
19890;BME280;10107;51.198;6.824;2023-03-08T00:24:59;-21330.81;;;0.36;100.00
19890;BME280;10107;51.198;6.824;2023-03-08T00:29:01;-21331.59;;;0.39;100.00
19890;BME280;10107;51.198;6.824;2023-03-08T00:33:02;-21331.59;;;0.39;100.00
19890;BME280;10107;51.198;6.824;2023-03-08T00:37:04;-21331.47;;;0.39;100.00
19890;BME280;10107;51.198;6.824;2023-03-08T00:41:07;-21331.47;;;0.39;100.00
19890;BME280;10107;51.198;6.824;2023-03-08T00:45:09;-21331.47;;;0.39;100.00
19890;BME280;10107;51.198;6.824;2023-03-08T00:49:11;-21331.75;;;0.40;100.00
19890;BME280;10107;51.198;6.824;2023-03-08T00:53:13;-21332.28;;;0.42;100.00
19890;BME280;10107;51.198;6.824;2023-03-08T00:57:16;-21333.75;;;0.48;100.00
19890;BME280;10107;51.198;6.824;2023-03-08T01:01:18;-21334.03;;;0.49;100.00
19890;BME280;10107;51.198;6.824;2023-03-08T01:05:22;-21333.09;;;0.45;100.00
19890;BME280;10107;51.198;6.824;2023-03-08T01:09:23;-21333.09;;;0.45;100.00
19890;BME280;10107;51.198;6.824;2023-03-08T01:13:28;-21332.28;;;0.42;100.00
19890;BME280;10107;51.198;6.824;2023-03-08T01:17:30;-21332.00;;;0.41;100.00
19890;BME280;10107;51.198;6.824;2023-03-08T01:21:32;-21331.88;;;0.41;100.00
19890;BME280;10107;51.198;6.824;2023-03-08T01:25:33;-21332.53;;;0.43;100.00
19890;BME280;10107;51.198;6.824;2023-03-08T01:29:37;-21332.28;;;0.42;100.00
19890;BME280;10107;51.198;6.824;2023-03-08T01:33:38;-21332.81;;;0.44;100.00
19890;BME280;10107;51.198;6.824;2023-03-08T01:37:40;-21333.91;;;0.48;100.00
19890;BME280;10107;51.198;6.824;2023-03-08T01:41:41;-21334.44;;;0.50;100.00
19890;BME280;10107;51.198;6.824;2023-03-08T01:50:10;-21334.03;;;0.49;100.00
19890;BME280;10107;51.198;6.824;2023-03-08T01:54:13;-21333.91;;;0.48;100.00
19890;BME280;10107;51.198;6.824;2023-03-08T01:58:16;-21333.63;;;0.47;100.00
19890;BME280;10107;51.198;6.824;2023-03-08T02:02:18;-21332.69;;;0.44;100.00
19890;BME280;10107;51.198;6.824;2023-03-08T02:06:23;-21332.69;;;0.44;100.00
19890;BME280;10107;51.198;6.824;2023-03-08T02:10:24;-21333.22;;;0.46;100.00
19890;BME280;10107;51.198;6.824;2023-03-08T02:14:27;-21332.81;;;0.44;100.00
19890;BME280;10107;51.198;6.824;2023-03-08T02:18:31;-21332.94;;;0.45;100.00
19890;BME280;10107;51.198;6.824;2023-03-08T02:22:37;-21332.81;;;0.44;100.00
19890;BME280;10107;51.198;6.824;2023-03-08T02:26:38;-21332.53;;;0.43;100.00
19890;BME280;10107;51.198;6.824;2023-03-08T02:30:40;-21332.53;;;0.43;100.00
19890;BME280;10107;51.198;6.824;2023-03-08T02:34:42;-21332.41;;;0.43;100.00
19890;BME280;10107;51.198;6.824;2023-03-08T02:38:44;-21332.53;;;0.43;100.00
19890;BME280;10107;51.198;6.824;2023-03-08T02:42:46;-21332.53;;;0.43;100.00
19890;BME280;10107;51.198;6.824;2023-03-08T02:46:47;-21332.00;;;0.41;100.00
19890;BME280;10107;51.198;6.824;2023-03-08T02:50:50;-21332.28;;;0.42;100.00
19890;BME280;10107;51.198;6.824;2023-03-08T02:54:52;-21332.53;;;0.43;100.00
19890;BME280;10107;51.198;6.824;2023-03-08T02:58:56;-21332.69;;;0.44;100.00
19890;BME280;10107;51.198;6.824;2023-03-08T03:02:58;-21332.69;;;0.44;100.00
19890;BME280;10107;51.198;6.824;2023-03-08T03:07:01;-21332.28;;;0.42;100.00
19890;BME280;10107;51.198;6.824;2023-03-08T03:11:10;-21332.41;;;0.43;100.00
19890;BME280;10107;51.198;6.824;2023-03-08T03:15:12;-21331.47;;;0.39;100.00
19890;BME280;10107;51.198;6.824;2023-03-08T03:19:15;-21330.41;;;0.35;100.00
19890;BME280;10107;51.198;6.824;2023-03-08T03:23:16;-21329.72;;;0.32;100.00
19890;BME280;10107;51.198;6.824;2023-03-08T03:27:26;-21330.41;;;0.35;100.00
19890;BME280;10107;51.198;6.824;2023-03-08T03:31:29;-21331.47;;;0.39;100.00
19890;BME280;10107;51.198;6.824;2023-03-08T03:35:31;-21331.75;;;0.40;100.00
19890;BME280;10107;51.198;6.824;2023-03-08T03:39:34;-21330.13;;;0.34;100.00
19890;BME280;10107;51.198;6.824;2023-03-08T03:43:39;-21328.66;;;0.28;100.00
19890;BME280;10107;51.198;6.824;2023-03-08T03:47:43;-21328.25;;;0.27;100.00
19890;BME280;10107;51.198;6.824;2023-03-08T03:51:45;-21327.97;;;0.26;100.00
19890;BME280;10107;51.198;6.824;2023-03-08T03:56:00;-21328.66;;;0.28;100.00
19890;BME280;10107;51.198;6.824;2023-03-08T04:00:06;-21328.25;;;0.27;100.00
19890;BME280;10107;51.198;6.824;2023-03-08T04:04:13;-21328.66;;;0.28;100.00
19890;BME280;10107;51.198;6.824;2023-03-08T04:08:17;-21329.59;;;0.32;100.00
19890;BME280;10107;51.198;6.824;2023-03-08T04:12:19;-21329.59;;;0.32;100.00
19890;BME280;10107;51.198;6.824;2023-03-08T04:16:23;-21329.59;;;0.32;100.00
19890;BME280;10107;51.198;6.824;2023-03-08T04:20:25;-21329.59;;;0.32;100.00
19890;BME280;10107;51.198;6.824;2023-03-08T04:24:31;-21329.19;;;0.30;100.00
19890;BME280;10107;51.198;6.824;2023-03-08T04:28:37;-21328.38;;;0.27;100.00
19890;BME280;10107;51.198;6.824;2023-03-08T04:32:40;-21328.25;;;0.27;100.00
19890;BME280;10107;51.198;6.824;2023-03-08T04:36:42;-21327.56;;;0.24;100.00
19890;BME280;10107;51.198;6.824;2023-03-08T04:40:48;-21327.03;;;0.22;100.00
19890;BME280;10107;51.198;6.824;2023-03-08T04:45:10;-21327.16;;;0.23;100.00
19890;BME280;10107;51.198;6.824;2023-03-08T04:49:14;-21326.63;;;0.21;100.00
19890;BME280;10107;51.198;6.824;2023-03-08T04:53:20;-21324.47;;;0.12;100.00
19890;BME280;10107;51.198;6.824;2023-03-08T04:57:22;-21323.81;;;0.10;100.00
19890;BME280;10107;51.198;6.824;2023-03-08T05:01:26;-21323.41;;;0.08;100.00
19890;BME280;10107;51.198;6.824;2023-03-08T05:05:32;-21323.94;;;0.10;100.00
19890;BME280;10107;51.198;6.824;2023-03-08T05:09:34;-21323.00;;;0.07;100.00
19890;BME280;10107;51.198;6.824;2023-03-08T05:13:37;-21321.25;;;0.00;100.00
19890;BME280;10107;51.198;6.824;2023-03-08T05:17:40;-21320.72;;;-0.02;100.00
19890;BME280;10107;51.198;6.824;2023-03-08T05:21:43;-21319.78;;;-0.06;100.00
19890;BME280;10107;51.198;6.824;2023-03-08T05:25:44;-21318.97;;;-0.09;100.00
19890;BME280;10107;51.198;6.824;2023-03-08T05:29:47;-21319.22;;;-0.08;100.00
19890;BME280;10107;51.198;6.824;2023-03-08T05:33:49;-21320.03;;;-0.05;100.00
19890;BME280;10107;51.198;6.824;2023-03-08T05:37:59;-21320.31;;;-0.04;100.00
19890;BME280;10107;51.198;6.824;2023-03-08T05:42:02;-21320.44;;;-0.03;100.00
19890;BME280;10107;51.198;6.824;2023-03-08T05:46:11;-21318.44;;;-0.11;100.00
19890;BME280;10107;51.198;6.824;2023-03-08T05:50:13;-21317.22;;;-0.15;100.00
19890;BME280;10107;51.198;6.824;2023-03-08T05:54:18;-21317.63;;;-0.14;100.00
19890;BME280;10107;51.198;6.824;2023-03-08T05:58:22;-21317.75;;;-0.13;100.00
19890;BME280;10107;51.198;6.824;2023-03-08T06:02:24;-21317.75;;;-0.13;100.00
19890;BME280;10107;51.198;6.824;2023-03-08T06:06:29;-21316.94;;;-0.16;100.00
19890;BME280;10107;51.198;6.824;2023-03-08T06:10:35;-21316.41;;;-0.18;100.00
19890;BME280;10107;51.198;6.824;2023-03-08T06:14:36;-21316.00;;;-0.20;100.00
19890;BME280;10107;51.198;6.824;2023-03-08T06:18:39;-21316.00;;;-0.20;100.00
19890;BME280;10107;51.198;6.824;2023-03-08T06:22:42;-21316.28;;;-0.19;100.00
19890;BME280;10107;51.198;6.824;2023-03-08T06:26:46;-21316.13;;;-0.19;100.00
19890;BME280;10107;51.198;6.824;2023-03-08T06:30:49;-21316.00;;;-0.20;100.00
19890;BME280;10107;51.198;6.824;2023-03-08T06:34:51;-21315.59;;;-0.22;100.00
19890;BME280;10107;51.198;6.824;2023-03-08T06:38:53;-21315.47;;;-0.22;100.00
19890;BME280;10107;51.198;6.824;2023-03-08T06:42:56;-21314.53;;;-0.26;100.00
19890;BME280;10107;51.198;6.824;2023-03-08T06:46:57;-21314.38;;;-0.26;100.00
19890;BME280;10107;51.198;6.824;2023-03-08T06:50:59;-21315.19;;;-0.23;100.00
19890;BME280;10107;51.198;6.824;2023-03-08T06:55:01;-21316.00;;;-0.20;100.00
19890;BME280;10107;51.198;6.824;2023-03-08T06:59:04;-21315.88;;;-0.21;100.00
19890;BME280;10107;51.198;6.824;2023-03-08T07:03:05;-21316.94;;;-0.16;100.00
19890;BME280;10107;51.198;6.824;2023-03-08T07:07:07;-21318.16;;;-0.12;100.00
19890;BME280;10107;51.198;6.824;2023-03-08T07:11:08;-21318.56;;;-0.10;100.00
19890;BME280;10107;51.198;6.824;2023-03-08T07:15:11;-21318.03;;;-0.12;100.00
19890;BME280;10107;51.198;6.824;2023-03-08T07:19:13;-21318.03;;;-0.12;100.00
19890;BME280;10107;51.198;6.824;2023-03-08T07:23:15;-21317.75;;;-0.13;100.00
19890;BME280;10107;51.198;6.824;2023-03-08T07:27:16;-21317.88;;;-0.13;100.00
19890;BME280;10107;51.198;6.824;2023-03-08T07:31:19;-21317.06;;;-0.16;100.00
19890;BME280;10107;51.198;6.824;2023-03-08T07:35:21;-21317.47;;;-0.14;100.00
19890;BME280;10107;51.198;6.824;2023-03-08T07:39:22;-21317.06;;;-0.16;100.00
19890;BME280;10107;51.198;6.824;2023-03-08T07:43:24;-21318.28;;;-0.11;100.00
19890;BME280;10107;51.198;6.824;2023-03-08T07:47:31;-21319.50;;;-0.07;100.00
19890;BME280;10107;51.198;6.824;2023-03-08T07:51:33;-21319.22;;;-0.08;100.00
19890;BME280;10107;51.198;6.824;2023-03-08T07:55:35;-21318.56;;;-0.10;100.00
19890;BME280;10107;51.198;6.824;2023-03-08T07:59:36;-21319.09;;;-0.08;100.00
19890;BME280;10107;51.198;6.824;2023-03-08T08:03:39;-21321.66;;;0.02;100.00
19890;BME280;10107;51.198;6.824;2023-03-08T08:07:41;-21322.19;;;0.04;100.00
19890;BME280;10107;51.198;6.824;2023-03-08T08:11:43;-21322.06;;;0.03;100.00
19890;BME280;10107;51.198;6.824;2023-03-08T08:15:44;-21321.78;;;0.02;100.00
19890;BME280;10107;51.198;6.824;2023-03-08T08:19:47;-21322.59;;;0.05;100.00
19890;BME280;10107;51.198;6.824;2023-03-08T08:23:49;-21322.88;;;0.06;100.00
19890;BME280;10107;51.198;6.824;2023-03-08T08:27:51;-21323.81;;;0.10;100.00
19890;BME280;10107;51.198;6.824;2023-03-08T08:31:53;-21325.03;;;0.14;100.00
19890;BME280;10107;51.198;6.824;2023-03-08T08:35:57;-21325.81;;;0.17;100.00
19890;BME280;10107;51.198;6.824;2023-03-08T08:39:59;-21326.63;;;0.21;100.00
19890;BME280;10107;51.198;6.824;2023-03-08T08:44:00;-21327.03;;;0.22;100.00
19890;BME280;10107;51.198;6.824;2023-03-08T08:48:02;-21327.56;;;0.24;100.00
19890;BME280;10107;51.198;6.824;2023-03-08T08:52:06;-21328.78;;;0.29;100.00
19890;BME280;10107;51.198;6.824;2023-03-08T08:56:09;-21331.75;;;0.40;100.00
19890;BME280;10107;51.198;6.824;2023-03-08T09:00:11;-21332.00;;;0.41;100.00
19890;BME280;10107;51.198;6.824;2023-03-08T09:04:13;-21332.16;;;0.42;100.00
19890;BME280;10107;51.198;6.824;2023-03-08T09:08:17;-21334.03;;;0.49;100.00
19890;BME280;10107;51.198;6.824;2023-03-08T09:12:18;-21332.81;;;0.44;100.00
19890;BME280;10107;51.198;6.824;2023-03-08T09:16:20;-21336.03;;;0.56;100.00
19890;BME280;10107;51.198;6.824;2023-03-08T09:20:22;-21340.22;;;0.72;100.00
19890;BME280;10107;51.198;6.824;2023-03-08T09:24:25;-21341.56;;;0.77;100.00
19890;BME280;10107;51.198;6.824;2023-03-08T09:28:27;-21342.50;;;0.81;100.00
19890;BME280;10107;51.198;6.824;2023-03-08T09:32:31;-21348.13;;;1.03;100.00
19890;BME280;10107;51.198;6.824;2023-03-08T09:36:32;-21357.66;;;1.39;100.00
19890;BME280;10107;51.198;6.824;2023-03-08T09:40:37;-21367.22;;;1.75;100.00
19890;BME280;10107;51.198;6.824;2023-03-08T09:44:50;-21376.59;;;2.11;100.00
19890;BME280;10107;51.198;6.824;2023-03-08T09:48:57;-21377.53;;;2.15;100.00
19890;BME280;10107;51.198;6.824;2023-03-08T09:53:02;-21372.84;;;1.97;100.00
19890;BME280;10107;51.198;6.824;2023-03-08T09:57:09;-21371.22;;;1.91;100.00
19890;BME280;10107;51.198;6.824;2023-03-08T10:01:26;-21376.06;;;2.09;100.00
19890;BME280;10107;51.198;6.824;2023-03-08T10:05:32;-21377.25;;;2.14;100.00
19890;BME280;10107;51.198;6.824;2023-03-08T10:09:37;-21376.06;;;2.09;100.00
19890;BME280;10107;51.198;6.824;2023-03-08T10:13:43;-21377.53;;;2.15;100.00
19890;BME280;10107;51.198;6.824;2023-03-08T10:17:48;-21378.75;;;2.20;100.00
19890;BME280;10107;51.198;6.824;2023-03-08T10:21:52;-21381.41;;;2.30;100.00
19890;BME280;10107;51.198;6.824;2023-03-08T10:25:56;-21385.56;;;2.46;100.00
19890;BME280;10107;51.198;6.824;2023-03-08T10:30:00;-21389.34;;;2.60;100.00
19890;BME280;10107;51.198;6.824;2023-03-08T10:34:02;-21387.84;;;2.54;100.00
19890;BME280;10107;51.198;6.824;2023-03-08T10:38:13;-21387.59;;;2.53;100.00
19890;BME280;10107;51.198;6.824;2023-03-08T10:42:15;-21388.94;;;2.58;100.00
19890;BME280;10107;51.198;6.824;2023-03-08T10:46:18;-21392.16;;;2.71;100.00
19890;BME280;10107;51.198;6.824;2023-03-08T10:50:20;-21395.63;;;2.84;100.00
19890;BME280;10107;51.198;6.824;2023-03-08T10:54:23;-21396.69;;;2.88;100.00
19890;BME280;10107;51.198;6.824;2023-03-08T10:58:32;-21399.66;;;3.00;100.00
19890;BME280;10107;51.198;6.824;2023-03-08T11:02:36;-21401.53;;;3.07;100.00
19890;BME280;10107;51.198;6.824;2023-03-08T11:06:38;-21403.94;;;3.16;100.00
19890;BME280;10107;51.198;6.824;2023-03-08T11:10:40;-21405.13;;;3.21;100.00
19890;BME280;10107;51.198;6.824;2023-03-08T11:14:41;-21402.34;;;3.10;100.00
19890;BME280;10107;51.198;6.824;2023-03-08T11:18:51;-21397.78;;;2.92;100.00
19890;BME280;10107;51.198;6.824;2023-03-08T11:22:59;-21396.31;;;2.87;100.00
19890;BME280;10107;51.198;6.824;2023-03-08T11:27:09;-21392.16;;;2.71;100.00
19890;BME280;10107;51.198;6.824;2023-03-08T11:31:13;-21394.28;;;2.79;100.00
19890;BME280;10107;51.198;6.824;2023-03-08T11:35:22;-21397.78;;;2.92;100.00
19890;BME280;10107;51.198;6.824;2023-03-08T11:39:25;-21398.03;;;2.93;100.00
19890;BME280;10107;51.198;6.824;2023-03-08T11:43:33;-21398.31;;;2.94;100.00
19890;BME280;10107;51.198;6.824;2023-03-08T11:47:44;-21400.59;;;3.03;100.00
19890;BME280;10107;51.198;6.824;2023-03-08T11:51:55;-21401.78;;;3.08;100.00
19890;BME280;10107;51.198;6.824;2023-03-08T11:56:07;-21403.94;;;3.16;100.00
19890;BME280;10107;51.198;6.824;2023-03-08T12:00:15;-21409.16;;;3.36;100.00
19890;BME280;10107;51.198;6.824;2023-03-08T12:04:24;-21422.28;;;3.86;100.00
19890;BME280;10107;51.198;6.824;2023-03-08T12:08:30;-21418.81;;;3.73;100.00
19890;BME280;10107;51.198;6.824;2023-03-08T12:12:34;-21414.66;;;3.57;100.00
19890;BME280;10107;51.198;6.824;2023-03-08T12:16:39;-21407.81;;;3.31;100.00
19890;BME280;10107;51.198;6.824;2023-03-08T12:20:45;-21407.69;;;3.30;100.00
19890;BME280;10107;51.198;6.824;2023-03-08T12:24:49;-21409.84;;;3.39;100.00
19890;BME280;10107;51.198;6.824;2023-03-08T12:28:54;-21408.91;;;3.35;100.00
19890;BME280;10107;51.198;6.824;2023-03-08T12:32:57;-21408.75;;;3.34;100.00
19890;BME280;10107;51.198;6.824;2023-03-08T12:36:59;-21403.94;;;3.16;100.00
19890;BME280;10107;51.198;6.824;2023-03-08T12:41:02;-21402.47;;;3.10;100.00
19890;BME280;10107;51.198;6.824;2023-03-08T12:49:32;-21397.91;;;2.93;100.00
19890;BME280;10107;51.198;6.824;2023-03-08T12:53:36;-21399.78;;;3.00;100.00
19890;BME280;10107;51.198;6.824;2023-03-08T12:57:44;-21398.97;;;2.97;100.00
19890;BME280;10107;51.198;6.824;2023-03-08T13:01:57;-21398.03;;;2.93;100.00
19890;BME280;10107;51.198;6.824;2023-03-08T13:05:59;-21398.31;;;2.94;100.00
19890;BME280;10107;51.198;6.824;2023-03-08T13:10:02;-21396.84;;;2.89;100.00
19890;BME280;10107;51.198;6.824;2023-03-08T13:18:22;-21394.97;;;2.82;100.00
19890;BME280;10107;51.198;6.824;2023-03-08T13:22:24;-21396.31;;;2.87;100.00
19890;BME280;10107;51.198;6.824;2023-03-08T13:26:40;-21396.69;;;2.88;100.00
19890;BME280;10107;51.198;6.824;2023-03-08T13:30:46;-21398.59;;;2.95;100.00
19890;BME280;10107;51.198;6.824;2023-03-08T13:34:58;-21402.59;;;3.11;100.00
19890;BME280;10107;51.198;6.824;2023-03-08T13:39:01;-21405.00;;;3.20;100.00
19890;BME280;10107;51.198;6.824;2023-03-08T13:43:04;-21406.47;;;3.26;100.00
19890;BME280;10107;51.198;6.824;2023-03-08T13:47:16;-21407.03;;;3.28;100.00
19890;BME280;10107;51.198;6.824;2023-03-08T13:51:21;-21406.34;;;3.25;100.00
19890;BME280;10107;51.198;6.824;2023-03-08T13:55:26;-21407.03;;;3.28;100.00
19890;BME280;10107;51.198;6.824;2023-03-08T13:59:30;-21409.56;;;3.37;100.00
19890;BME280;10107;51.198;6.824;2023-03-08T14:03:32;-21407.97;;;3.31;100.00
19890;BME280;10107;51.198;6.824;2023-03-08T14:07:35;-21407.69;;;3.30;100.00
19890;BME280;10107;51.198;6.824;2023-03-08T14:11:37;-21402.59;;;3.11;100.00
19890;BME280;10107;51.198;6.824;2023-03-08T14:15:39;-21399.25;;;2.98;100.00
19890;BME280;10107;51.198;6.824;2023-03-08T14:19:51;-21397.66;;;2.92;100.00
19890;BME280;10107;51.198;6.824;2023-03-08T14:23:55;-21398.03;;;2.93;100.00
19890;BME280;10107;51.198;6.824;2023-03-08T14:27:57;-21399.91;;;3.01;100.00
19890;BME280;10107;51.198;6.824;2023-03-08T14:32:00;-21402.06;;;3.09;100.00
19890;BME280;10107;51.198;6.824;2023-03-08T14:36:03;-21402.19;;;3.09;100.00
19890;BME280;10107;51.198;6.824;2023-03-08T14:40:20;-21399.91;;;3.01;100.00
19890;BME280;10107;51.198;6.824;2023-03-08T14:44:24;-21399.78;;;3.00;100.00
19890;BME280;10107;51.198;6.824;2023-03-08T14:48:27;-21398.03;;;2.93;100.00
19890;BME280;10107;51.198;6.824;2023-03-08T14:52:30;-21398.72;;;2.96;100.00
19890;BME280;10107;51.198;6.824;2023-03-08T14:56:35;-21396.69;;;2.88;100.00
19890;BME280;10107;51.198;6.824;2023-03-08T15:00:46;-21394.16;;;2.78;100.00
19890;BME280;10107;51.198;6.824;2023-03-08T15:04:48;-21394.97;;;2.82;100.00
19890;BME280;10107;51.198;6.824;2023-03-08T15:08:49;-21396.97;;;2.89;100.00
19890;BME280;10107;51.198;6.824;2023-03-08T15:12:52;-21399.91;;;3.01;100.00
19890;BME280;10107;51.198;6.824;2023-03-08T15:16:54;-21400.44;;;3.03;100.00
19890;BME280;10107;51.198;6.824;2023-03-08T15:20:57;-21401.25;;;3.06;100.00
19890;BME280;10107;51.198;6.824;2023-03-08T15:24:59;-21401.25;;;3.06;100.00
19890;BME280;10107;51.198;6.824;2023-03-08T15:29:02;-21401.25;;;3.06;100.00
19890;BME280;10107;51.198;6.824;2023-03-08T15:33:03;-21399.38;;;2.98;100.00
19890;BME280;10107;51.198;6.824;2023-03-08T15:37:05;-21394.44;;;2.80;100.00
19890;BME280;10107;51.198;6.824;2023-03-08T15:41:09;-21392.28;;;2.71;100.00
19890;BME280;10107;51.198;6.824;2023-03-08T15:45:12;-21389.88;;;2.62;100.00
19890;BME280;10107;51.198;6.824;2023-03-08T15:49:14;-21390.41;;;2.64;100.00
19890;BME280;10107;51.198;6.824;2023-03-08T15:53:15;-21389.72;;;2.62;100.00
19890;BME280;10107;51.198;6.824;2023-03-08T15:57:17;-21390.81;;;2.66;100.00
19890;BME280;10107;51.198;6.824;2023-03-08T16:01:20;-21389.59;;;2.61;100.00
19890;BME280;10107;51.198;6.824;2023-03-08T16:05:21;-21388.94;;;2.58;100.00
19890;BME280;10107;51.198;6.824;2023-03-08T16:09:24;-21387.59;;;2.53;100.00
19890;BME280;10107;51.198;6.824;2023-03-08T16:13:25;-21386.78;;;2.50;100.00
19890;BME280;10107;51.198;6.824;2023-03-08T16:17:29;-21385.72;;;2.46;100.00
19890;BME280;10107;51.198;6.824;2023-03-08T16:21:30;-21385.84;;;2.47;100.00
19890;BME280;10107;51.198;6.824;2023-03-08T16:25:32;-21383.44;;;2.37;100.00
19890;BME280;10107;51.198;6.824;2023-03-08T16:29:33;-21381.56;;;2.30;100.00
19890;BME280;10107;51.198;6.824;2023-03-08T16:33:36;-21380.63;;;2.27;100.00
19890;BME280;10107;51.198;6.824;2023-03-08T16:37:38;-21379.53;;;2.23;100.00
19890;BME280;10107;51.198;6.824;2023-03-08T16:41:40;-21378.34;;;2.18;100.00
19890;BME280;10107;51.198;6.824;2023-03-08T16:45:50;-21377.66;;;2.15;100.00
19890;BME280;10107;51.198;6.824;2023-03-08T16:49:54;-21375.66;;;2.08;100.00
19890;BME280;10107;51.198;6.824;2023-03-08T16:53:55;-21374.59;;;2.04;100.00
19890;BME280;10107;51.198;6.824;2023-03-08T16:57:58;-21374.72;;;2.04;100.00
19890;BME280;10107;51.198;6.824;2023-03-08T17:02:02;-21374.59;;;2.04;100.00
19890;BME280;10107;51.198;6.824;2023-03-08T17:06:07;-21374.44;;;2.03;100.00
19890;BME280;10107;51.198;6.824;2023-03-08T17:10:09;-21374.72;;;2.04;100.00
19890;BME280;10107;51.198;6.824;2023-03-08T17:14:11;-21372.84;;;1.97;100.00
19890;BME280;10107;51.198;6.824;2023-03-08T17:18:13;-21372.03;;;1.94;100.00
19890;BME280;10107;51.198;6.824;2023-03-08T17:22:16;-21371.50;;;1.92;100.00
19890;BME280;10107;51.198;6.824;2023-03-08T17:26:18;-21370.69;;;1.89;100.00
19890;BME280;10107;51.198;6.824;2023-03-08T17:30:20;-21369.63;;;1.85;100.00
19890;BME280;10107;51.198;6.824;2023-03-08T17:34:21;-21369.75;;;1.85;100.00
19890;BME280;10107;51.198;6.824;2023-03-08T17:38:24;-21369.88;;;1.86;100.00
19890;BME280;10107;51.198;6.824;2023-03-08T17:42:30;-21369.09;;;1.83;100.00
19890;BME280;10107;51.198;6.824;2023-03-08T17:46:32;-21368.28;;;1.80;100.00
19890;BME280;10107;51.198;6.824;2023-03-08T17:50:33;-21367.75;;;1.77;100.00
19890;BME280;10107;51.198;6.824;2023-03-08T17:54:39;-21367.59;;;1.77;100.00
19890;BME280;10107;51.198;6.824;2023-03-08T17:58:43;-21366.66;;;1.73;100.00
19890;BME280;10107;51.198;6.824;2023-03-08T18:02:45;-21366.41;;;1.72;100.00
19890;BME280;10107;51.198;6.824;2023-03-08T18:06:49;-21365.31;;;1.68;100.00
19890;BME280;10107;51.198;6.824;2023-03-08T18:10:55;-21363.84;;;1.63;100.00
19890;BME280;10107;51.198;6.824;2023-03-08T18:14:56;-21362.63;;;1.58;100.00
19890;BME280;10107;51.198;6.824;2023-03-08T18:19:01;-21362.09;;;1.56;100.00
19890;BME280;10107;51.198;6.824;2023-03-08T18:23:02;-21361.97;;;1.55;100.00
19890;BME280;10107;51.198;6.824;2023-03-08T18:27:07;-21362.09;;;1.56;100.00
19890;BME280;10107;51.198;6.824;2023-03-08T18:31:10;-21361.44;;;1.53;100.00
19890;BME280;10107;51.198;6.824;2023-03-08T18:35:13;-21361.44;;;1.53;100.00
19890;BME280;10107;51.198;6.824;2023-03-08T18:39:14;-21360.34;;;1.49;100.00
19890;BME280;10107;51.198;6.824;2023-03-08T18:43:17;-21358.75;;;1.43;100.00
19890;BME280;10107;51.198;6.824;2023-03-08T18:47:21;-21357.28;;;1.37;100.00
19890;BME280;10107;51.198;6.824;2023-03-08T18:51:23;-21357.00;;;1.36;100.00
19890;BME280;10107;51.198;6.824;2023-03-08T18:55:24;-21356.72;;;1.35;100.00
19890;BME280;10107;51.198;6.824;2023-03-08T18:59:27;-21356.72;;;1.35;100.00
19890;BME280;10107;51.198;6.824;2023-03-08T19:03:32;-21356.72;;;1.35;100.00
19890;BME280;10107;51.198;6.824;2023-03-08T19:07:34;-21357.53;;;1.38;100.00
19890;BME280;10107;51.198;6.824;2023-03-08T19:11:41;-21357.66;;;1.39;100.00
19890;BME280;10107;51.198;6.824;2023-03-08T19:15:45;-21357.53;;;1.38;100.00
19890;BME280;10107;51.198;6.824;2023-03-08T19:19:47;-21357.41;;;1.38;100.00
19890;BME280;10107;51.198;6.824;2023-03-08T19:23:49;-21357.28;;;1.37;100.00
19890;BME280;10107;51.198;6.824;2023-03-08T19:27:51;-21356.88;;;1.36;100.00
19890;BME280;10107;51.198;6.824;2023-03-08T19:31:55;-21357.41;;;1.38;100.00
19890;BME280;10107;51.198;6.824;2023-03-08T19:35:57;-21356.72;;;1.35;100.00
19890;BME280;10107;51.198;6.824;2023-03-08T19:39:59;-21357.28;;;1.37;100.00
19890;BME280;10107;51.198;6.824;2023-03-08T19:44:00;-21358.88;;;1.44;100.00
19890;BME280;10107;51.198;6.824;2023-03-08T19:48:07;-21359.16;;;1.45;100.00
19890;BME280;10107;51.198;6.824;2023-03-08T19:52:09;-21358.88;;;1.44;100.00
19890;BME280;10107;51.198;6.824;2023-03-08T19:56:13;-21359.69;;;1.47;100.00
19890;BME280;10107;51.198;6.824;2023-03-08T20:00:15;-21360.63;;;1.50;100.00
19890;BME280;10107;51.198;6.824;2023-03-08T20:04:18;-21361.16;;;1.52;100.00
19890;BME280;10107;51.198;6.824;2023-03-08T20:08:19;-21361.97;;;1.55;100.00
19890;BME280;10107;51.198;6.824;2023-03-08T20:12:20;-21362.63;;;1.58;100.00
19890;BME280;10107;51.198;6.824;2023-03-08T20:16:22;-21362.78;;;1.58;100.00
19890;BME280;10107;51.198;6.824;2023-03-08T20:20:26;-21363.44;;;1.61;100.00
19890;BME280;10107;51.198;6.824;2023-03-08T20:24:28;-21363.31;;;1.61;100.00
19890;BME280;10107;51.198;6.824;2023-03-08T20:28:30;-21363.59;;;1.62;100.00
19890;BME280;10107;51.198;6.824;2023-03-08T20:32:32;-21363.72;;;1.62;100.00
19890;BME280;10107;51.198;6.824;2023-03-08T20:36:35;-21363.97;;;1.63;100.00
19890;BME280;10107;51.198;6.824;2023-03-08T20:40:36;-21364.50;;;1.65;100.00
19890;BME280;10107;51.198;6.824;2023-03-08T20:44:49;-21365.06;;;1.67;100.00
19890;BME280;10107;51.198;6.824;2023-03-08T20:49:00;-21366.13;;;1.71;100.00
19890;BME280;10107;51.198;6.824;2023-03-08T20:53:03;-21367.06;;;1.75;100.00
19890;BME280;10107;51.198;6.824;2023-03-08T20:57:04;-21368.13;;;1.79;100.00
19890;BME280;10107;51.198;6.824;2023-03-08T21:01:09;-21368.94;;;1.82;100.00
19890;BME280;10107;51.198;6.824;2023-03-08T21:05:11;-21368.53;;;1.81;100.00
19890;BME280;10107;51.198;6.824;2023-03-08T21:09:14;-21367.88;;;1.78;100.00
19890;BME280;10107;51.198;6.824;2023-03-08T21:13:16;-21367.59;;;1.77;100.00
19890;BME280;10107;51.198;6.824;2023-03-08T21:17:18;-21366.94;;;1.74;100.00
19890;BME280;10107;51.198;6.824;2023-03-08T21:21:21;-21366.66;;;1.73;100.00